.
WxDataArchive / Data Records for 2009-10-28
2009-10-27 October 2009 2009-10-29

Data Records for Wednesday, 28 October 2009

Time	Temp	Chill	HIndex	Humid	Dewpt	 Wind 	HiWind	WindDir	Rain 	Barom 
-----	----	-----	------	-----	-----	------	------	-------	-----	----- 
00:00	51.3	51.3	51.3	96	50.2	1	4	112	0.00	29.811 
00:05	51.1	51.1	51.1	96	50.0	1	4	112	0.00	29.811 
00:10	51.1	51.1	51.1	96	50.0	1	3	112	0.00	29.811 
00:15	51.1	51.1	51.1	96	50.0	1	2	112	0.00	29.808 
00:20	51.0	51.0	51.0	96	49.9	0	3	112	0.00	29.808 
00:25	51.0	51.0	51.0	96	49.9	0	2	135	0.00	29.808 
00:30	51.0	51.0	51.0	96	49.9	1	3	135	0.00	29.803 
00:35	50.8	50.8	50.8	96	49.7	0	3	135	0.00	29.803 
00:40	50.8	50.8	50.8	96	49.7	0	2	90	0.00	29.803 
00:45	50.8	50.8	50.8	96	49.7	0	3	90	0.00	29.799 
00:50	50.8	50.8	50.8	96	49.7	0	3	90	0.00	29.799 
00:55	50.8	50.8	50.8	96	49.7	1	4	112	0.00	29.799 
01:00	50.7	50.7	50.7	96	49.6	0	1	112	0.00	29.798 
01:05	50.7	50.7	50.7	96	49.6	0	0	---	0.00	29.798 
01:10	50.7	50.7	50.7	96	49.6	0	0	---	0.00	29.798 
01:15	50.7	50.7	50.7	96	49.6	0	1	112	0.00	29.797 
01:20	50.7	50.7	50.7	96	49.6	0	0	---	0.00	29.797 
01:25	50.5	50.5	50.5	96	49.4	0	0	---	0.00	29.797 
01:30	50.5	50.5	50.5	96	49.4	0	0	---	0.00	29.796 
01:35	50.5	50.5	50.5	96	49.4	0	0	---	0.00	29.796 
01:40	50.5	50.5	50.5	96	49.4	0	1	112	0.00	29.796 
01:45	50.5	50.5	50.5	96	49.4	0	0	---	0.00	29.791 
01:50	50.5	50.5	50.5	96	49.4	0	0	---	0.00	29.791 
01:55	50.5	50.5	50.5	96	49.4	0	1	112	0.00	29.791 
02:00	50.5	50.5	50.5	96	49.4	0	1	112	0.00	29.789 
02:05	50.5	50.5	50.5	96	49.4	0	2	112	0.00	29.789 
02:10	50.5	50.5	50.5	96	49.4	0	2	112	0.00	29.789 
02:15	50.5	50.5	50.5	96	49.4	0	1	112	0.00	29.773 
02:20	50.4	50.4	50.4	96	49.3	0	1	112	0.00	29.773 
02:25	50.4	50.4	50.4	96	49.3	0	2	112	0.00	29.773 
02:30	50.4	50.4	50.4	96	49.3	0	1	112	0.00	29.778 
02:35	50.4	50.4	50.4	96	49.3	0	2	112	0.00	29.778 
02:40	50.4	50.4	50.4	96	49.3	0	2	112	0.00	29.778 
02:45	50.4	50.4	50.4	96	49.3	0	2	112	0.00	29.784 
02:50	50.4	50.4	50.4	96	49.3	0	2	112	0.00	29.784 
02:55	50.4	50.4	50.4	96	49.3	0	1	112	0.00	29.784 
03:00	50.5	50.5	50.5	96	49.4	0	1	112	0.00	29.784 
03:05	50.5	50.5	50.5	96	49.4	0	2	112	0.00	29.784 
03:10	50.4	50.4	50.4	96	49.3	0	1	112	0.00	29.784 
03:15	50.4	50.4	50.4	96	49.3	0	2	112	0.00	29.787 
03:20	50.4	50.4	50.4	96	49.3	0	1	112	0.00	29.787 
03:25	50.4	50.4	50.4	96	49.3	0	2	112	0.00	29.787 
03:30	50.4	50.4	50.4	96	49.3	0	2	112	0.00	29.787 
03:35	50.4	50.4	50.4	96	49.3	0	2	112	0.00	29.787 
03:40	50.4	50.4	50.4	96	49.3	0	4	135	0.00	29.787 
03:45	50.4	50.4	50.4	96	49.3	0	2	135	0.00	29.781 
03:50	50.4	50.4	50.4	96	49.3	0	1	135	0.00	29.781 
03:55	50.4	50.4	50.4	96	49.3	0	2	135	0.00	29.781 
04:00	50.4	50.4	50.4	96	49.3	0	2	135	0.00	29.781 
04:05	50.2	50.2	50.2	96	49.1	0	1	135	0.00	29.781 
04:10	50.2	50.2	50.2	96	49.1	1	2	135	0.00	29.781 
04:15	50.2	50.2	50.2	96	49.1	0	2	135	0.00	29.779 
04:20	50.2	50.2	50.2	96	49.1	0	2	135	0.00	29.779 
04:25	50.2	50.2	50.2	96	49.1	1	5	135	0.00	29.779 
04:30	50.2	50.2	50.2	96	49.1	0	3	112	0.00	29.778 
04:35	50.2	50.2	50.2	96	49.1	0	1	112	0.00	29.778 
04:40	50.2	50.2	50.2	96	49.1	0	2	112	0.00	29.778 
04:45	50.4	50.4	50.4	96	49.3	0	1	112	0.00	29.781 
04:50	50.4	50.4	50.4	96	49.3	0	1	112	0.00	29.781 
04:55	50.4	50.4	50.4	96	49.3	0	0	---	0.00	29.781 
05:00	50.4	50.4	50.4	96	49.3	0	1	112	0.00	29.793 
05:05	50.4	50.4	50.4	96	49.3	0	0	---	0.00	29.793 
05:10	50.4	50.4	50.4	96	49.3	0	0	---	0.00	29.793 
05:15	50.5	50.5	50.5	96	49.4	0	2	112	0.00	29.798 
05:20	50.5	50.5	50.5	96	49.4	0	0	---	0.00	29.798 
05:25	50.5	50.5	50.5	96	49.4	0	1	112	0.00	29.798 
05:30	50.5	50.5	50.5	96	49.4	0	1	112	0.00	29.812 
05:35	50.5	50.5	50.5	96	49.4	0	0	---	0.00	29.812 
05:40	50.5	50.5	50.5	96	49.4	0	1	112	0.00	29.812 
05:45	50.5	50.5	50.5	96	49.4	0	1	112	0.00	29.827 
05:50	50.5	50.5	50.5	96	49.4	0	1	112	0.00	29.827 
05:55	50.5	50.5	50.5	96	49.4	0	0	---	0.00	29.827 
06:00	50.5	50.5	50.5	96	49.4	0	0	---	0.00	29.835 
06:05	50.7	50.7	50.7	96	49.6	0	1	112	0.00	29.835 
06:10	50.7	50.7	50.7	96	49.6	0	1	112	0.00	29.835 
06:15	50.7	50.7	50.7	96	49.6	0	1	112	0.00	29.845 
06:20	50.7	50.7	50.7	96	49.6	0	0	---	0.00	29.845 
06:25	50.7	50.7	50.7	96	49.6	0	0	---	0.00	29.845 
06:30	50.7	50.7	50.7	96	49.6	0	0	---	0.00	29.848 
06:35	50.7	50.7	50.7	96	49.6	0	0	---	0.00	29.848 
06:40	50.7	50.7	50.7	96	49.6	0	0	---	0.00	29.848 
06:45	50.5	50.5	50.5	96	49.4	0	0	---	0.00	29.847 
06:50	50.5	50.5	50.5	96	49.4	0	0	---	0.00	29.847 
06:55	50.5	50.5	50.5	96	49.4	0	0	---	0.00	29.847 
07:00	50.7	50.7	50.7	96	49.6	0	0	---	0.00	29.863 
07:05	50.7	50.7	50.7	96	49.6	0	0	---	0.00	29.863 
07:10	50.7	50.7	50.7	96	49.6	0	0	---	0.00	29.863 
07:15	50.7	50.7	50.7	96	49.6	0	0	---	0.00	29.870 
07:20	50.7	50.7	50.7	96	49.6	0	0	---	0.00	29.870 
07:25	50.7	50.7	50.7	96	49.6	0	0	---	0.00	29.870 
07:30	50.7	50.7	50.7	96	49.6	0	0	---	0.00	29.873 
07:35	50.5	50.5	50.5	96	49.4	0	0	---	0.00	29.873 
07:40	50.5	50.5	50.5	96	49.4	0	0	---	0.00	29.873 
07:45	50.5	50.5	50.5	96	49.4	0	0	---	0.00	29.878 
07:50	50.5	50.5	50.5	96	49.4	0	0	---	0.00	29.878 
07:55	50.5	50.5	50.5	96	49.4	0	0	---	0.00	29.878 
08:00	50.5	50.5	50.5	96	49.4	0	0	---	0.00	29.877 
08:05	50.5	50.5	50.5	96	49.4	0	0	---	0.00	29.877 
08:10	50.4	50.4	50.4	96	49.3	0	0	---	0.00	29.877 
08:15	50.4	50.4	50.4	96	49.3	0	0	---	0.00	29.890 
08:20	50.4	50.4	50.4	96	49.3	0	0	---	0.00	29.890 
08:25	50.4	50.4	50.4	96	49.3	0	0	---	0.00	29.890 
08:30	50.4	50.4	50.4	96	49.3	0	0	---	0.00	29.900 
08:35	50.4	50.4	50.4	96	49.3	0	0	---	0.00	29.900 
08:40	50.4	50.4	50.4	96	49.3	0	0	---	0.00	29.900 
08:45	50.5	50.5	50.5	96	49.4	0	0	---	0.00	29.914 
08:50	50.5	50.5	50.5	97	49.7	0	0	---	0.00	29.914 
08:55	50.7	50.7	50.7	97	49.9	0	0	---	0.00	29.914 
09:00	50.7	50.7	50.7	96	49.6	0	0	---	0.00	29.922 
09:05	50.8	50.8	50.8	97	50.0	0	0	---	0.00	29.922 
09:10	50.8	50.8	50.8	97	50.0	0	0	---	0.00	29.922 
09:15	50.8	50.8	50.8	96	49.7	0	1	112	0.00	29.929 
09:20	50.8	50.8	50.8	96	49.7	0	1	112	0.00	29.929 
09:25	50.8	50.8	50.8	96	49.7	0	0	---	0.00	29.929 
09:30	51.0	51.0	51.0	96	49.9	0	1	112	0.00	29.939 
09:35	51.0	51.0	51.0	96	49.9	0	0	---	0.00	29.939 
09:40	51.0	51.0	51.0	96	49.9	0	1	112	0.00	29.939 
09:45	51.0	51.0	51.0	96	49.9	0	1	112	0.00	29.945 
09:50	51.1	51.1	51.1	96	50.0	0	1	112	0.00	29.945 
09:55	51.1	51.1	51.1	96	50.0	0	1	112	0.00	29.945 
10:00	51.3	51.3	51.3	96	50.2	0	0	---	0.00	29.954 
10:05	51.3	51.3	51.3	96	50.2	0	1	112	0.00	29.954 
10:10	51.4	51.4	51.4	97	50.6	0	2	112	0.00	29.954 
10:15	51.4	51.4	51.4	96	50.3	0	0	---	0.00	29.950 
10:20	51.6	51.6	51.6	96	50.5	0	1	112	0.00	29.950 
10:25	51.7	51.7	51.7	97	50.9	0	0	---	0.00	29.950 
10:30	51.7	51.7	51.7	96	50.6	0	1	112	0.00	29.939 
10:35	51.7	51.7	51.7	96	50.6	0	1	112	0.00	29.939 
10:40	51.9	51.9	51.9	96	50.8	0	0	---	0.00	29.939 
10:45	52.0	52.0	52.0	96	50.9	0	0	---	0.00	29.939 
10:50	52.2	52.2	52.2	96	51.1	0	1	112	0.00	29.939 
10:55	52.2	52.2	52.2	96	51.1	0	1	112	0.00	29.939 
11:00	52.3	52.3	52.3	96	51.2	0	1	112	0.00	29.962 
11:05	52.3	52.3	52.3	96	51.2	0	1	112	0.00	29.962 
11:10	52.3	52.3	52.3	96	51.2	0	1	112	0.00	29.962 
11:15	52.5	52.5	52.5	96	51.4	0	1	112	0.00	29.978 
11:20	52.5	52.5	52.5	96	51.4	0	1	112	0.00	29.978 
11:25	52.5	52.5	52.5	96	51.4	0	1	112	0.00	29.978 
11:30	52.5	52.5	52.5	96	51.4	0	1	112	0.00	29.981 
11:35	52.6	52.6	52.6	96	51.5	0	1	112	0.00	29.981 
11:40	52.8	52.8	52.8	95	51.4	0	2	112	0.00	29.981 
11:45	52.8	52.8	52.8	95	51.4	0	1	112	0.00	29.984 
11:50	52.9	52.9	52.9	95	51.5	0	1	112	0.00	29.984 
11:55	52.9	52.9	52.9	95	51.5	0	1	112	0.00	29.984 
12:00	53.2	53.2	53.2	95	51.8	0	1	0	0.00	29.998 
12:05	53.3	53.3	53.3	94	51.6	0	1	0	0.00	29.998 
12:10	53.3	53.3	53.3	94	51.6	0	1	0	0.00	29.998 
12:15	53.3	53.3	53.3	94	51.6	0	2	292	0.00	30.004 
12:20	53.6	53.6	53.6	93	51.6	0	1	292	0.00	30.004 
12:25	53.8	53.8	53.8	93	51.8	0	1	292	0.00	30.004 
12:30	54.1	54.1	54.1	93	52.1	0	1	292	0.00	30.004 
12:35	54.1	54.1	54.1	92	51.8	0	2	292	0.00	30.004 
12:40	54.1	54.1	54.1	92	51.8	0	2	292	0.00	30.004 
12:45	54.2	54.2	54.2	92	51.9	0	2	292	0.00	30.001 
12:50	54.5	54.5	54.5	91	51.9	0	1	292	0.00	30.001 
12:55	54.8	54.8	54.8	91	52.2	0	1	292	0.00	30.001 
13:00	55.0	55.0	55.0	90	52.1	0	1	292	0.00	29.998 
13:05	55.1	55.1	55.1	90	52.2	0	1	292	0.00	29.998 
13:10	55.3	55.3	55.3	89	52.1	0	1	292	0.00	29.998 
13:15	55.6	55.6	55.6	88	52.1	0	0	---	0.00	29.998 
13:20	55.9	55.9	55.9	88	52.4	0	1	292	0.00	29.998 
13:25	56.2	56.2	56.2	88	52.7	0	1	292	0.00	29.998 
13:30	56.3	56.3	56.3	86	52.2	0	1	292	0.00	29.988 
13:35	56.5	56.5	56.5	85	52.0	0	1	292	0.00	29.988 
13:40	56.6	56.6	56.6	84	51.8	0	0	---	0.00	29.988 
13:45	56.9	56.9	56.9	84	52.1	0	2	292	0.00	29.987 
13:50	57.0	57.0	57.0	83	51.9	0	1	292	0.00	29.987 
13:55	57.2	57.2	57.2	82	51.8	0	0	---	0.00	29.987 
14:00	57.5	57.5	57.5	81	51.7	0	1	270	0.00	29.987 
14:05	57.5	57.5	57.5	79	51.0	0	1	270	0.00	29.987 
14:10	57.8	57.8	57.8	80	51.7	0	2	270	0.00	29.987 
14:15	57.8	57.8	57.8	78	51.0	0	1	270	0.00	29.990 
14:20	58.0	58.0	58.0	78	51.2	0	3	270	0.00	29.990 
14:25	58.3	58.3	58.3	78	51.5	0	2	270	0.00	29.990 
14:30	58.4	58.4	58.4	76	50.9	0	1	270	0.00	29.997 
14:35	58.6	58.6	58.6	77	51.4	0	2	270	0.00	29.997 
14:40	58.7	58.7	58.7	76	51.2	0	1	270	0.00	29.997 
14:45	58.7	58.7	58.7	75	50.8	0	2	270	0.00	29.989 
14:50	58.7	58.7	58.7	77	51.5	1	2	248	0.00	29.989 
14:55	58.6	58.6	58.6	74	50.3	0	2	68	0.00	29.989 
15:00	58.7	58.7	58.7	76	51.2	1	3	68	0.00	29.981 
15:05	59.0	59.0	59.0	76	51.4	0	4	112	0.00	29.981 
15:10	59.2	59.2	59.2	72	50.2	0	0	---	0.00	29.981 
15:15	59.2	59.2	59.2	70	49.4	0	1	112	0.00	29.999 
15:20	59.0	59.0	59.0	72	50.0	0	0	---	0.00	29.999 
15:25	58.9	58.9	58.9	73	50.3	0	0	---	0.00	29.999 
15:30	58.7	58.7	58.7	73	50.1	0	0	---	0.00	29.999 
15:35	58.7	58.7	58.7	72	49.7	0	0	---	0.00	29.999 
15:40	58.7	58.7	58.7	71	49.3	0	0	---	0.00	29.999 
15:45	59.2	59.2	59.2	71	49.8	0	1	112	0.00	29.998 
15:50	59.5	59.5	59.5	70	49.7	0	2	112	0.00	29.998 
15:55	60.1	60.1	60.1	69	49.9	0	1	112	0.00	29.998 
16:00	60.5	60.5	60.5	66	49.1	0	2	112	0.00	30.002 
16:05	60.5	60.5	60.5	65	48.7	0	3	112	0.00	30.002 
16:10	60.4	60.4	60.4	66	49.0	0	1	112	0.00	30.002 
16:15	60.4	60.4	60.4	68	49.8	0	0	---	0.00	30.012 
16:20	60.4	60.4	60.4	66	49.0	0	0	---	0.00	30.012 
16:25	60.4	60.4	60.4	66	49.0	0	1	112	0.00	30.012 
16:30	60.4	60.4	60.4	66	49.0	0	2	112	0.00	30.020 
16:35	60.7	60.7	60.7	66	49.3	0	1	112	0.00	30.020 
16:40	60.9	60.9	60.9	65	49.1	0	1	112	0.00	30.020 
16:45	61.0	61.0	61.0	65	49.1	0	1	112	0.00	30.024 
16:50	61.0	61.0	61.0	63	48.3	0	1	112	0.00	30.024 
16:55	61.2	61.2	61.2	64	48.9	0	1	112	0.00	30.024 
17:00	61.2	61.2	61.2	62	48.1	0	3	112	0.00	30.028 
17:05	61.3	61.3	61.3	64	49.0	0	2	135	0.00	30.028 
17:10	61.5	61.5	61.5	63	48.8	1	3	225	0.00	30.028 
17:15	61.3	61.3	61.3	64	49.0	1	2	225	0.00	30.035 
17:20	61.2	61.2	61.2	64	48.9	0	2	225	0.00	30.035 
17:25	60.9	60.9	60.9	65	49.1	0	1	225	0.00	30.035 
17:30	60.4	60.4	60.4	65	48.6	0	3	225	0.00	30.042 
17:35	60.1	60.1	60.1	66	48.7	0	1	225	0.00	30.042 
17:40	59.8	59.8	59.8	68	49.2	0	0	---	0.00	30.042 
17:45	59.6	59.6	59.6	69	49.4	0	0	---	0.00	30.047 
17:50	59.3	59.3	59.3	68	48.7	0	2	225	0.00	30.047 
17:55	59.0	59.0	59.0	69	48.8	0	0	---	0.00	30.047 
18:00	58.7	58.7	58.7	70	48.9	0	0	---	0.00	30.048 
18:05	58.3	58.3	58.3	71	48.9	0	0	---	0.00	30.048 
18:10	58.0	58.0	58.0	72	49.0	0	0	---	0.00	30.048 
18:15	57.6	57.6	57.6	72	48.6	0	0	---	0.00	30.057 
18:20	57.5	57.5	57.5	73	48.9	0	0	---	0.00	30.057 
18:25	57.0	57.0	57.0	74	48.8	0	0	---	0.00	30.057 
18:30	56.7	56.7	56.7	77	49.6	0	0	---	0.00	30.061 
18:35	56.3	56.3	56.3	78	49.5	0	0	---	0.00	30.061 
18:40	55.9	55.9	55.9	79	49.5	0	0	---	0.00	30.061 
18:45	55.6	55.6	55.6	79	49.2	0	0	---	0.00	30.075 
18:50	55.0	55.0	55.0	80	48.9	0	0	---	0.00	30.075 
18:55	54.5	54.5	54.5	81	48.8	0	0	---	0.00	30.075 
19:00	54.2	54.2	54.2	82	48.8	0	0	---	0.00	30.081 
19:05	53.8	53.8	53.8	83	48.8	0	0	---	0.00	30.081 
19:10	53.5	53.5	53.5	84	48.8	0	0	---	0.00	30.081 
19:15	53.2	53.2	53.2	84	48.5	0	0	---	0.00	30.096 
19:20	52.8	52.8	52.8	85	48.4	0	0	---	0.00	30.096 
19:25	52.5	52.5	52.5	86	48.4	0	0	---	0.00	30.096 
19:30	52.0	52.0	52.0	86	47.9	0	0	---	0.00	30.099 
19:35	51.7	51.7	51.7	87	48.0	0	0	---	0.00	30.099 
19:40	51.4	51.4	51.4	87	47.7	0	0	---	0.00	30.099 
19:45	51.1	51.1	51.1	88	47.7	0	0	---	0.00	30.104 
19:50	51.0	51.0	51.0	88	47.6	0	0	---	0.00	30.104 
19:55	50.7	50.7	50.7	88	47.3	0	0	---	0.00	30.104 
20:00	50.4	50.4	50.4	88	47.0	0	0	---	0.00	30.112 
20:05	50.2	50.2	50.2	89	47.1	0	0	---	0.00	30.112 
20:10	50.1	50.1	50.1	89	47.0	0	0	---	0.00	30.112 
20:15	49.9	49.9	49.9	90	47.1	0	0	---	0.00	30.118 
20:20	49.8	49.8	49.8	90	47.0	0	0	---	0.00	30.118 
20:25	49.8	49.8	49.8	91	47.3	0	0	---	0.00	30.118 
20:30	49.8	49.8	49.8	91	47.3	0	0	---	0.00	30.131 
20:35	49.8	49.8	49.8	92	47.6	0	0	---	0.00	30.131 
20:40	49.6	49.6	49.6	92	47.4	0	0	---	0.00	30.131 
20:45	49.6	49.6	49.6	92	47.4	0	0	---	0.00	30.141 
20:50	49.5	49.5	49.5	92	47.3	0	0	---	0.00	30.141 
20:55	49.4	49.4	49.4	92	47.2	0	0	---	0.00	30.141 
21:00	49.2	49.2	49.2	92	47.0	0	0	---	0.00	30.140 
21:05	49.1	49.1	49.1	92	46.9	0	0	---	0.00	30.140 
21:10	48.9	48.9	48.9	92	46.7	0	0	---	0.00	30.140 
21:15	48.6	48.6	48.6	92	46.4	0	0	---	0.00	30.135 
21:20	48.5	48.5	48.5	93	46.6	0	0	---	0.00	30.135 
21:25	48.3	48.3	48.3	93	46.4	0	0	---	0.00	30.135 
21:30	48.3	48.3	48.3	93	46.4	0	0	---	0.00	30.143 
21:35	48.0	48.0	48.0	93	46.1	0	0	---	0.00	30.143 
21:40	47.9	47.9	47.9	93	46.0	0	0	---	0.00	30.143 
21:45	47.7	47.7	47.7	93	45.8	0	0	---	0.00	30.144 
21:50	47.6	47.6	47.6	93	45.7	0	0	---	0.00	30.144 
21:55	47.3	47.3	47.3	93	45.4	0	0	---	0.00	30.144 
22:00	47.1	47.1	47.1	93	45.2	0	0	---	0.00	30.140 
22:05	46.8	46.8	46.8	93	44.9	0	0	---	0.00	30.140 
22:10	46.8	46.8	46.8	93	44.9	0	0	---	0.00	30.140 
22:15	46.7	46.7	46.7	93	44.8	0	0	---	0.00	30.138 
22:20	46.5	46.5	46.5	93	44.6	0	0	---	0.00	30.138 
22:25	46.4	46.4	46.4	93	44.5	0	0	---	0.00	30.138 
22:30	46.2	46.2	46.2	94	44.6	0	0	---	0.00	30.141 
22:35	46.2	46.2	46.2	94	44.6	0	0	---	0.00	30.141 
22:40	46.1	46.1	46.1	94	44.5	0	0	---	0.00	30.141 
22:45	46.0	46.0	46.0	94	44.4	0	0	---	0.00	30.144 
22:50	45.8	45.8	45.8	94	44.2	0	0	---	0.00	30.144 
22:55	45.7	45.7	45.7	94	44.1	0	0	---	0.00	30.144 
23:00	45.5	45.5	45.5	94	43.9	0	0	---	0.00	30.142 
23:05	45.4	45.4	45.4	94	43.8	0	0	---	0.00	30.142 
23:10	45.1	45.1	45.1	94	43.5	0	0	---	0.00	30.142 
23:15	45.1	45.1	45.1	94	43.5	0	0	---	0.00	30.147 
23:20	44.9	44.9	44.9	94	43.3	0	0	---	0.00	30.147 
23:25	44.9	44.9	44.9	94	43.3	0	0	---	0.00	30.147 
23:30	44.8	44.8	44.8	94	43.2	0	0	---	0.00	30.150 
23:35	44.8	44.8	44.8	94	43.2	0	0	---	0.00	30.150 
23:40	44.8	44.8	44.8	94	43.2	0	0	---	0.00	30.150 
23:45	44.9	44.9	44.9	95	43.6	0	0	---	0.00	30.150 
23:50	45.2	45.2	45.2	95	43.9	0	0	---	0.00	30.150 
23:55	45.4	45.4	45.4	95	44.1	0	0	---	0.00	30.150 

CoCoRaHS
IN-AL-39
A2 Web Hosting
Creative Commons License
GoDaddy
search engine by freefind advanced

loaded 2018-11-15 15:43:55 • last modified 2010-11-18 10:43:29
Privacy PolicyDisclaimer
• wx.awcolley.com is powered by PmWiki v.2002016 •
• all content (unless otherwise noted) © 2018 A W Colley